x

Jonesport, Me - 20 Nm Se Of Jonesport, Me (44027) Wave Buoy

7:50pm - Thu 8th Dec 2016 All times are AST. -4 hours from GMT.

  • Sig Wave height 3.6ft
  • Swell Direction
  • Peak Period 10s
  • Average Period 5s
  • Wind
    22mph, 27mph gusts
  • Sea Temp 48°f
  • Air Temp 42°f
  • Sea Pressure 1003.8mb
  • Jonesport, Me - 20 Nm Se Of Jonesport, Me
  • Jonesport, Me - 20 Nm Se Of Jonesport, Me

More Historic Weather Station data

Upgrade to MSW Pro to gain access to the past 30 days of data for over 8000 Wavebouys and Weather Stations around the globe.

Join Pro

Comparision Forecast

View Surf forecast
   
Thu 12/08 7:50pm 3.5ft 10s 5s 22 27 mph 1003.8mb 48f 42f
6:50pm 3ft 11s 5s 18 22 mph 1004.1mb 48f 43f
5:50pm 2.5ft 11s 6s 16 18 mph 1004.6mb 48f 43f
4:50pm 2.5ft 10s 6s 11 13 mph 1005.1mb 48f 42f
3:50pm 3ft 10s 6s 9 11 mph 1005.9mb 49f 42f
2:50pm 3ft 10s 6s 7 9 mph 1006.5mb 49f 42f
1:50pm 2.5ft 11s 5s 7 9 mph 1007.5mb 49f 42f
11:50am 1.6ft 11s 5s  -  2 mph 1009.9mb 49f 43f
10:50am 1.6ft 12s 5s 4 9 mph 1010.7mb 48f 42f
9:50am 1.6ft 9s 5s 7
mph
1011.2mb 48f 41f
8:50am 1.3ft 8s 5s 4 7 mph 1011.7mb 48f 41f
7:50am 1.6ft 8s 5s 9 11 mph 1011.6mb 48f 41f
6:50am 1.6ft 8s 4s 9 11 mph 1011.5mb 48f 40f
5:50am 1.6ft 9s 4s 11 16 mph 1011.7mb 48f 40f
4:50am 2ft 8s 4s 11 13 mph 1011.9mb 48f 40f
3:50am 2ft 9s 4s 7 9 mph 1012.1mb 48f 43f
Wed 12/07 11:50pm 1.6ft 9s 4s 13 18 mph 1013.9mb 48f 42f
10:50pm 1.3ft 9s 5s 11 16 mph 1014.6mb 48f 42f
9:50pm 1.3ft 9s 5s 9 11 mph 1014.7mb 48f 41f
8:50pm 1.3ft 9s 7s 9 13 mph 1015mb 48f 40f
7:50pm 1.3ft 8s 6s 7 11 mph 1015.2mb 48f 39f
6:50pm 1.3ft 9s 6s 4 7 mph 1015.1mb 48f 38f
5:50pm 1.3ft 9s 6s 7 9 mph 1014.6mb 48f 36f
4:50pm 1.3ft 9s 6s 4 9 mph 1014.4mb 48f 36f
3:50pm 1.3ft 8s 6s 4 7 mph 1014.9mb 48f 35f
2:50pm 1.3ft 9s 6s 4 7 mph 1014.7mb 49f 35f
12:50pm 1.6ft 9s 6s 2 4 mph 1015.1mb 49f 35f
11:50am 1.6ft 9s 5s 4 7 mph 1015.8mb 49f 35f
10:50am 1.6ft 10s 4s 4 9 mph 1016.8mb 49f 34f
9:50am 1.6ft 10s 4s 9 13 mph 1015.7mb 48f 34f
8:50am 1.6ft 9s 4s 9 11 mph 1016mb 49f 33f
7:50am 1.6ft 3s 4s 9 13 mph 1015.5mb 48f 33f
6:50am 1.6ft 9s 4s 9 13 mph 1015.4mb 48f 33f
5:50am 2ft 9s 4s 9 13 mph 1015.6mb 48f 32f
4:50am 1.6ft 10s 4s 11 13 mph 1016.4mb 48f 31f
3:50am 1.6ft 10s 4s 7 11 mph 1016.4mb 49f 32f
2:50am 1.6ft 4s 4s 9 13 mph 1016.3mb 49f 32f
1:50am 1.6ft 4s 4s 11 18 mph 1016.2mb 49f 31f
12:50am 1.6ft 11s 4s 13 18 mph 1016.8mb 49f 31f
Tue 12/06 11:50pm 1.6ft 11s 4s 9 13 mph 1017.8mb 49f 31f
10:50pm 1.6ft 10s 4s 13 16 mph 1017.5mb 49f 32f
9:50pm 1.6ft 3s 3s 13 16 mph 1017.6mb 49f 31f
8:50pm 2ft 3s 4s 11 16 mph 1017.8mb 49f 31f
7:50pm 2ft 3s 4s 11 18 mph 1018.1mb 49f 32f
6:50pm 2.5ft 3s 4s 9 16 mph 1018.2mb 49f 32f
5:50pm 2.5ft 3s 4s 13 18 mph 1017.7mb 49f 32f
4:50pm 3ft 4s 4s 13 18 mph 1017.7mb 49f 32f
3:50pm 3ft 4s 4s 13 18 mph 1017.5mb 49f 32f
2:50pm 3.5ft 4s 4s 13 20 mph 1017.4mb 49f 31f
1:50pm 3.5ft 5s 4s 18 22 mph 1017.4mb 49f 31f
12:50pm 3.5ft 4s 4s 20 27 mph 1017.3mb 49f 31f
11:50am 3.5ft 4s 4s 20 25 mph 1017.8mb 50f 30f
10:50am 3.5ft 4s 4s 22 27 mph 1017.9mb 50f 30f
9:50am 3.5ft 4s 4s 22 27 mph 1017.8mb 50f 31f
8:50am 3ft 3s 4s 22 27 mph 1017.2mb 50f 31f
7:50am 3.5ft 4s 4s 20 27 mph 1016.5mb 50f 31f
6:50am 3ft 4s 4s 22 25 mph 1015.3mb 50f 33f
5:50am 3.5ft 4s 4s 20 22 mph 1014.7mb 50f 35f
4:50am 3.5ft 4s 4s 18 22 mph 1014mb 50f 35f
3:50am 2.5ft 3s 4s 20 25 mph 1013.1mb 50f 35f
2:50am 2ft 3s 4s 16 20 mph 1012.3mb 50f 37f
1:50am 2ft 3s 4s 13 16 mph 1011.4mb 50f 37f
12:50am 1.6ft 10s 4s 13 16 mph 1011.2mb 50f 37f
Mon 12/05 11:50pm 1.6ft 10s 3s 13 18 mph 1011.3mb 50f 37f
10:50pm 1.3ft 9s 4s 13 18 mph 1011.7mb 50f 37f
9:50pm 1ft 8s 4s 13 18 mph 1012.3mb 50f 36f
8:50pm 1ft 9s 6s 11 13 mph 1013.1mb 50f 36f
7:50pm 1ft 9s 6s 9 11 mph 1013.8mb 50f 36f
6:50pm 1ft 9s 6s 4 9 mph 1014.3mb 50f 36f
5:50pm 1ft 8s 6s 2 4 mph 1014.7mb 50f 35f
4:50pm 1ft 8s 6s 4 7 mph 1014.4mb 50f 34f
3:50pm 1ft 9s 5s 4 7 mph 1015.2mb 50f 33f
2:50pm 1.3ft 8s 5s 4 9 mph 1014.8mb 49f 32f
1:50pm 1.3ft 8s 5s 7 9 mph 1016.7mb 49f 31f
12:50pm 1ft 9s 5s 9 13 mph 1017.4mb 50f 30f
11:50am 1ft 9s 4s 4 9 mph 1017.8mb 49f 29f
10:50am 1ft 8s 4s 7 11 mph 1019mb 50f 29f
9:50am 1.3ft 9s 4s 7 11 mph 1019.9mb 50f 29f
8:50am 1.3ft 10s 4s 9 11 mph 1020mb 50f 28f
7:50am 1.6ft 4s 3s 7 11 mph 1020.3mb 50f 29f
6:50am 2ft 3s 3s 7 11 mph 1019.9mb 50f 29f
5:50am 2.5ft 4s 3s 11 16 mph 1019.1mb 50f 29f
4:50am 2.5ft 4s 4s 16 22 mph 1019mb 50f 29f
3:50am 2.5ft 4s 4s 16 20 mph 1019.2mb 50f 30f
2:50am 3ft 5s 4s 18 20 mph 1019.8mb 50f 29f
1:50am 3.5ft 4s 4s 20 25 mph 1020.1mb 50f 30f